Time;durP1;ratioP1;P1;durP2;ratioP2;P2;SDS_P1;SDS_P2;PMS_P1;PMS_P2;Temp;Humidity;BMP_temperature;BMP_pressure;BME280_temperature;BME280_humidity;BME280_pressure;Samples;Min_cycle;Max_cycle;Signal;HPM_P1;HPM_P2
2024/02/01 00:01:20;;;;;;;;;9.00;7.00;;;;;4.25;88.26;101086.88;112883;242;39955;-51
2024/02/01 00:04:01;;;;;;;;;9.00;6.75;;;;;4.21;88.20;101082.77;112682;242;160720;-50
2024/02/01 00:06:40;;;;;;;;;12.00;9.00;;;;;4.25;88.17;101082.57;112863;242;39299;-52
2024/02/01 00:09:22;;;;;;;;;7.00;6.00;;;;;4.26;88.19;101078.15;112749;239;161023;-53
2024/02/01 00:12:01;;;;;;;;;10.00;8.00;;;;;4.29;88.10;101074.94;112896;242;39918;-51
2024/02/01 00:14:41;;;;;;;;;12.00;7.50;;;;;4.28;88.11;101067.86;112760;239;160694;-51
2024/02/01 00:17:20;;;;;;;;;11.00;7.00;;;;;4.27;88.06;101059.23;112847;242;39088;-52
2024/02/01 00:20:03;;;;;;;;;7.00;5.00;;;;;4.28;87.84;101058.98;112876;242;40847;-52
2024/02/01 00:22:41;;;;;;;;;13.00;10.00;;;;;4.26;87.74;101054.30;112692;240;159739;-55
2024/02/01 00:25:19;;;;;;;;;9.33;6.33;;;;;4.23;87.85;101054.05;112848;242;41125;-55
2024/02/01 00:27:56;;;;;;;;;6.75;6.00;;;;;4.22;87.74;101048.63;112918;242;39788;-56
2024/02/01 00:30:39;;;;;;;;;9.00;6.25;;;;;4.16;87.81;101040.88;112840;242;39216;-54
2024/02/01 00:33:19;;;;;;;;;10.00;8.00;;;;;4.10;88.01;101025.54;112862;242;40501;-54
2024/02/01 00:35:59;;;;;;;;;8.00;6.00;;;;;4.07;88.00;101023.84;112863;242;40151;-52
2024/02/01 00:38:36;;;;;;;;;7.25;6.00;;;;;4.06;87.89;101019.64;112723;242;160779;-53
2024/02/01 00:41:11;;;;;;;;;12.33;10.00;;;;;4.04;87.96;101013.39;112892;242;38989;-55
2024/02/01 00:43:50;;;;;;;;;10.00;7.00;;;;;4.03;88.09;101001.41;112810;242;40399;-54
2024/02/01 00:46:33;;;;;;;;;8.00;7.00;;;;;4.05;88.04;100996.39;112690;240;160740;-55
2024/02/01 00:49:13;;;;;;;;;13.00;10.00;;;;;4.09;88.07;100990.75;112833;242;39792;-55
2024/02/01 00:51:55;;;;;;;;;10.00;6.50;;;;;4.13;88.00;100981.11;112741;242;160949;-55
2024/02/01 00:54:43;;;;;;;;;9.00;6.00;;;;;4.14;88.06;100975.67;112806;242;39572;-55
2024/02/01 00:57:24;;;;;;;;;7.50;6.00;;;;;4.16;87.88;100968.86;112778;239;160811;-53
2024/02/01 01:00:05;;;;;;;;;10.00;7.00;;;;;4.20;87.91;100960.55;112836;242;39040;-53
2024/02/01 01:02:47;;;;;;;;;9.50;8.00;;;;;4.20;87.82;100953.02;112881;242;39968;-56
2024/02/01 01:05:29;;;;;;;;;8.00;6.25;;;;;4.23;87.60;100948.70;112619;243;40874;-56
2024/02/01 01:08:08;;;;;;;;;9.00;7.00;;;;;4.20;87.70;100937.75;112844;242;39812;-56
2024/02/01 01:10:46;;;;;;;;;12.50;8.75;;;;;4.22;87.58;100931.88;112731;239;159762;-56
2024/02/01 01:13:22;;;;;;;;;12.00;8.75;;;;;4.20;87.32;100924.55;112815;242;39203;-56
2024/02/01 01:16:04;;;;;;;;;8.00;6.00;;;;;4.16;87.31;100921.77;112611;241;160036;-55
2024/02/01 01:18:44;;;;;;;;;7.00;6.00;;;;;4.13;87.17;100912.82;112742;243;41012;-56
2024/02/01 01:21:25;;;;;;;;;5.00;4.00;;;;;4.13;87.18;100904.28;112889;243;40801;-56
2024/02/01 01:24:06;;;;;;;;;8.00;6.00;;;;;4.12;87.05;100905.39;112834;243;40036;-57
2024/02/01 01:26:41;;;;;;;;;7.00;5.00;;;;;4.12;87.00;100905.05;112819;243;39667;-56
2024/02/01 01:29:24;;;;;;;;;8.50;5.50;;;;;4.13;86.94;100901.63;112860;243;39181;-56
2024/02/01 01:32:04;;;;;;;;;10.33;8.00;;;;;4.12;86.93;100895.42;112844;243;39639;-52
2024/02/01 01:34:42;;;;;;;;;8.00;6.00;;;;;4.16;86.45;100882.27;112500;241;161049;-51
2024/02/01 01:37:18;;;;;;;;;11.50;7.75;;;;;4.21;86.52;100879.19;112860;242;41063;-51
2024/02/01 01:39:57;;;;;;;;;8.50;7.25;;;;;4.24;86.37;100874.23;112862;242;39486;-52
2024/02/01 01:42:38;;;;;;;;;14.67;12.00;;;;;4.27;86.28;100875.73;112827;242;39538;-56
2024/02/01 01:45:19;;;;;;;;;15.00;11.00;;;;;4.30;86.19;100870.81;112901;243;40463;-53
2024/02/01 01:47:53;;;;;;;;;12.25;9.00;;;;;4.33;86.25;100870.27;112866;242;39573;-53
2024/02/01 01:50:33;;;;;;;;;9.00;7.00;;;;;4.34;86.13;100873.89;112897;242;40398;-52
2024/02/01 01:53:13;;;;;;;;;14.75;12.00;;;;;4.33;86.14;100866.83;112415;241;160085;-52
2024/02/01 01:55:53;;;;;;;;;12.33;9.00;;;;;4.33;86.10;100864.04;112901;243;40584;-56
2024/02/01 01:58:37;;;;;;;;;10.50;6.75;;;;;4.30;85.94;100867.27;112907;243;40674;-56
2024/02/01 02:01:18;;;;;;;;;13.00;10.00;;;;;4.29;85.77;100867.54;112895;243;39553;-54
2024/02/01 02:04:02;;;;;;;;;10.25;9.00;;;;;4.29;85.83;100870.61;112653;241;161252;-55
2024/02/01 02:06:41;;;;;;;;;13.00;9.00;;;;;4.27;86.02;100866.70;112710;242;38891;-52
2024/02/01 02:09:17;;;;;;;;;13.00;9.00;;;;;4.26;85.95;100857.73;112852;242;41359;-52
2024/02/01 02:11:52;;;;;;;;;13.33;9.00;;;;;4.26;86.05;100852.17;112889;243;40921;-56
2024/02/01 02:14:29;;;;;;;;;8.25;6.75;;;;;4.26;86.01;100852.12;112811;242;40366;-56
2024/02/01 02:17:16;;;;;;;;;12.50;10.00;;;;;4.28;85.99;100850.91;112301;242;160095;-54
2024/02/01 02:19:56;;;;;;;;;15.33;13.00;;;;;4.33;85.96;100855.09;112837;243;40992;-54
2024/02/01 02:22:37;;;;;;;;;11.00;8.75;;;;;4.35;86.10;100850.43;112588;241;160529;-51
2024/02/01 02:25:14;;;;;;;;;16.33;12.00;;;;;4.33;86.08;100849.70;112741;243;39772;-54
2024/02/01 02:27:56;;;;;;;;;11.50;8.25;;;;;4.33;86.16;100850.13;112874;243;39733;-54
2024/02/01 02:30:37;;;;;;;;;20.25;14.00;;;;;4.30;86.10;100845.68;112884;243;40147;-52
2024/02/01 02:33:16;;;;;;;;;14.33;10.33;;;;;4.31;85.99;100843.90;112820;243;41426;-51
2024/02/01 02:35:53;;;;;;;;;11.50;8.00;;;;;4.29;85.96;100831.94;112406;242;160059;-51
2024/02/01 02:38:32;;;;;;;;;10.00;7.33;;;;;4.26;85.86;100829.82;112859;242;39537;-51
2024/02/01 02:41:17;;;;;;;;;11.00;7.75;;;;;4.24;85.95;100821.30;112929;242;40815;-55
2024/02/01 02:44:06;;;;;;;;;12.00;8.00;;;;;4.24;85.92;100816.14;112936;242;39953;-56
2024/02/01 02:46:51;;;;;;;;;11.00;8.00;;;;;4.23;85.99;100811.21;112632;241;160501;-52
2024/02/01 02:49:33;;;;;;;;;18.67;13.00;;;;;4.23;86.15;100803.55;112743;243;40359;-52
2024/02/01 02:52:11;;;;;;;;;10.00;9.00;;;;;4.28;86.04;100796.19;112673;241;161701;-52
2024/02/01 02:54:52;;;;;;;;;14.00;10.00;;;;;4.28;86.06;100792.80;112596;242;39761;-52
2024/02/01 02:57:33;;;;;;;;;16.00;12.50;;;;;4.28;86.13;100791.32;112900;242;39182;-51
2024/02/01 03:00:18;;;;;;;;;8.75;7.25;;;;;4.31;86.24;100785.19;112548;243;40872;-55
2024/02/01 03:02:52;;;;;;;;;10.00;8.00;;;;;4.34;86.18;100775.24;112816;243;39309;-56
2024/02/01 03:05:35;;;;;;;;;16.00;11.00;;;;;4.34;86.11;100769.53;112875;243;39662;-52
2024/02/01 03:08:11;;;;;;;;;16.75;10.75;;;;;4.32;86.08;100765.88;112852;243;40338;-53
2024/02/01 03:10:53;;;;;;;;;16.00;11.75;;;;;4.31;86.06;100760.23;112720;239;160555;-53
2024/02/01 03:13:38;;;;;;;;;16.50;12.25;;;;;4.26;86.07;100758.02;112793;243;41211;-53
2024/02/01 03:16:28;;;;;;;;;13.00;9.33;;;;;4.24;86.05;100750.36;112681;243;161096;-52
2024/02/01 03:19:12;;;;;;;;;14.00;10.75;;;;;4.22;86.08;100740.42;112751;243;39625;-52
2024/02/01 03:21:55;;;;;;;;;13.00;10.25;;;;;4.19;86.12;100732.06;112867;243;39346;-52
2024/02/01 03:24:34;;;;;;;;;17.00;11.00;;;;;4.23;86.04;100730.69;112809;243;41154;-51
2024/02/01 03:27:11;;;;;;;;;12.50;10.00;;;;;4.22;86.13;100724.86;112869;243;39489;-51
2024/02/01 03:29:58;;;;;;;;;14.00;11.00;;;;;4.22;86.15;100722.38;112847;243;40004;-50
2024/02/01 03:32:41;;;;;;;;;15.25;11.00;;;;;4.26;86.15;100711.13;112861;243;40863;-52
2024/02/01 03:35:22;;;;;;;;;17.25;13.00;;;;;4.29;86.21;100707.85;112549;241;161157;-52
2024/02/01 03:38:02;;;;;;;;;13.00;9.00;;;;;4.32;86.10;100706.67;112795;242;39673;-51
2024/02/01 03:40:38;;;;;;;;;13.75;9.75;;;;;4.34;86.04;100704.91;112685;241;160058;-52
2024/02/01 03:43:14;;;;;;;;;16.75;12.00;;;;;4.33;85.87;100706.52;112671;243;40743;-53
2024/02/01 03:45:50;;;;;;;;;8.00;7.00;;;;;4.32;85.89;100710.55;112554;244;39939;-51
2024/02/01 03:48:27;;;;;;;;;12.00;9.00;;;;;4.31;85.79;100709.60;112623;245;38970;-50
2024/02/01 03:51:07;;;;;;;;;12.00;10.00;;;;;4.29;85.76;100705.33;112554;244;40839;-56
2024/02/01 03:53:48;;;;;;;;;11.33;8.00;;;;;4.24;85.68;100704.20;112313;241;160947;-56
2024/02/01 03:56:30;;;;;;;;;15.00;12.67;;;;;4.23;85.74;100703.80;112552;244;39335;-56
2024/02/01 03:59:14;;;;;;;;;14.00;10.50;;;;;4.23;85.59;100697.00;112300;243;160840;-56
2024/02/01 04:02:03;;;;;;;;;13.50;10.75;;;;;4.24;85.63;100689.42;112449;245;41148;-53
2024/02/01 04:04:45;;;;;;;;;13.00;8.50;;;;;4.26;85.69;100682.80;112291;242;160980;-53
2024/02/01 04:07:29;;;;;;;;;14.00;11.25;;;;;4.28;85.70;100674.56;112411;244;40003;-55
2024/02/01 04:10:09;;;;;;;;;17.00;13.25;;;;;4.29;85.65;100672.14;112520;244;41246;-53
2024/02/01 04:12:52;;;;;;;;;17.25;12.00;;;;;4.28;85.63;100666.41;112535;244;39358;-54
2024/02/01 04:15:57;;;;;;;;;12.75;10.50;;;;;4.25;85.66;100651.71;112562;244;41152;-52
2024/02/01 04:18:40;;;;;;;;;13.33;9.00;;;;;4.25;85.49;100648.82;112481;244;41368;-51
2024/02/01 04:21:19;;;;;;;;;21.50;15.00;;;;;4.23;85.48;100648.70;112535;244;39331;-52
2024/02/01 04:23:57;;;;;;;;;11.50;8.50;;;;;4.18;85.36;100639.70;112343;242;160246;-52
2024/02/01 04:26:37;;;;;;;;;9.25;7.00;;;;;4.16;85.37;100640.03;112479;244;39526;-54
2024/02/01 04:29:17;;;;;;;;;21.00;13.00;;;;;4.14;85.48;100636.84;112341;242;160881;-54
2024/02/01 04:31:55;;;;;;;;;12.00;9.75;;;;;4.13;85.39;100634.10;112512;244;39822;-52
2024/02/01 04:34:38;;;;;;;;;14.75;10.75;;;;;4.13;85.40;100628.36;112417;242;160977;-52
2024/02/01 04:37:20;;;;;;;;;10.50;7.75;;;;;4.12;85.56;100623.27;112511;244;39545;-52
2024/02/01 04:40:00;;;;;;;;;12.50;10.00;;;;;4.12;85.50;100621.52;112457;244;40266;-52
2024/02/01 04:42:47;;;;;;;;;12.50;10.00;;;;;4.14;85.56;100619.56;112463;244;39564;-51
2024/02/01 04:45:30;;;;;;;;;18.75;14.00;;;;;4.17;85.49;100615.38;112810;243;39085;-52
2024/02/01 04:48:10;;;;;;;;;15.00;10.00;;;;;4.16;85.38;100613.34;112419;241;160161;-51
2024/02/01 04:50:51;;;;;;;;;16.50;12.00;;;;;4.14;85.56;100611.00;112872;242;39817;-52
2024/02/01 04:53:39;;;;;;;;;17.75;12.75;;;;;4.09;85.47;100601.77;112442;241;160875;-52
2024/02/01 04:56:19;;;;;;;;;17.67;13.33;;;;;4.06;85.51;100597.68;112802;243;39917;-51
2024/02/01 04:59:10;;;;;;;;;19.75;13.00;;;;;4.01;85.49;100593.32;112608;241;160393;-50
2024/02/01 05:01:55;;;;;;;;;18.00;13.00;;;;;3.93;85.53;100589.48;112688;243;39734;-52
2024/02/01 05:04:39;;;;;;;;;15.00;12.00;;;;;3.92;85.57;100587.26;112593;242;161172;-52
2024/02/01 05:07:18;;;;;;;;;20.00;14.67;;;;;3.90;85.66;100578.29;112494;243;39866;-51
2024/02/01 05:10:20;;;;;;;;;15.67;13.00;;;;;3.89;85.73;100572.77;112446;244;40504;-52
2024/02/01 05:12:57;;;;;;;;;25.00;15.67;;;;;3.93;85.68;100566.82;112508;243;39710;-52
2024/02/01 05:15:41;;;;;;;;;22.50;15.00;;;;;3.94;85.77;100564.44;112499;244;39423;-55
2024/02/01 05:18:23;;;;;;;;;28.25;19.00;;;;;3.96;85.68;100560.48;112356;241;160916;-56
2024/02/01 05:21:03;;;;;;;;;32.33;23.33;;;;;3.95;85.61;100559.02;112846;243;39485;-55
2024/02/01 05:23:48;;;;;;;;;20.33;14.67;;;;;3.96;85.59;100553.91;112553;241;160351;-56
2024/02/01 05:26:29;;;;;;;;;24.67;18.67;;;;;3.92;85.59;100551.58;112831;243;40075;-52
2024/02/01 05:29:10;;;;;;;;;23.00;16.50;;;;;3.89;85.58;100548.55;112615;242;160532;-52
2024/02/01 05:31:49;;;;;;;;;21.33;17.00;;;;;3.87;85.58;100548.66;112685;243;39302;-52
2024/02/01 05:34:30;;;;;;;;;22.50;17.25;;;;;3.83;85.57;100547.64;112363;241;160568;-52
2024/02/01 05:37:08;;;;;;;;;20.00;14.25;;;;;3.77;85.68;100545.02;112772;243;39863;-52
2024/02/01 05:39:44;;;;;;;;;21.00;16.00;;;;;3.76;85.60;100546.71;112835;243;40404;-52
2024/02/01 05:42:24;;;;;;;;;19.00;15.00;;;;;3.76;85.57;100540.70;112426;241;160979;-54
2024/02/01 05:45:08;;;;;;;;;30.00;22.00;;;;;3.75;85.75;100540.02;112827;243;39890;-54
2024/02/01 05:47:52;;;;;;;;;28.25;22.00;;;;;3.74;85.72;100539.03;112878;243;40448;-54
2024/02/01 05:50:29;;;;;;;;;26.00;20.00;;;;;3.75;85.78;100543.62;112543;243;39860;-55
2024/02/01 05:53:04;;;;;;;;;34.00;24.00;;;;;3.76;85.85;100542.27;112569;241;161555;-54
2024/02/01 05:55:43;;;;;;;;;28.25;23.00;;;;;3.77;85.81;100547.33;112650;243;40969;-53
2024/02/01 05:58:22;;;;;;;;;25.25;19.00;;;;;3.78;85.75;100544.91;112857;243;40411;-53
2024/02/01 06:01:00;;;;;;;;;30.25;20.50;;;;;3.78;85.77;100540.06;112482;243;40059;-53
2024/02/01 06:03:36;;;;;;;;;27.25;20.25;;;;;3.79;85.72;100535.54;112888;243;41115;-53
2024/02/01 06:06:15;;;;;;;;;23.00;17.00;;;;;3.78;85.62;100529.58;112894;243;40681;-57
2024/02/01 06:08:50;;;;;;;;;34.00;24.00;;;;;3.76;85.71;100536.89;112835;243;39384;-57
2024/02/01 06:11:26;;;;;;;;;31.00;23.00;;;;;3.73;85.76;100538.64;112611;240;160607;-56
2024/02/01 06:14:11;;;;;;;;;22.75;18.00;;;;;3.71;85.87;100532.60;112706;243;40716;-55
2024/02/01 06:16:54;;;;;;;;;28.00;21.67;;;;;3.68;85.83;100538.02;112898;243;39312;-56
2024/02/01 06:19:33;;;;;;;;;29.25;22.00;;;;;3.65;85.92;100539.35;112826;243;41333;-57
2024/02/01 06:22:08;;;;;;;;;36.00;25.75;;;;;3.65;85.95;100537.58;112806;243;40631;-52
2024/02/01 06:24:48;;;;;;;;;32.75;23.00;;;;;3.66;86.01;100537.80;112421;241;162547;-52
2024/02/01 06:27:30;;;;;;;;;27.00;19.33;;;;;3.67;86.16;100537.35;112864;242;40638;-56
2024/02/01 06:30:10;;;;;;;;;29.50;21.00;;;;;3.71;86.11;100533.46;112853;242;39679;-55
2024/02/01 06:32:52;;;;;;;;;27.33;20.67;;;;;3.74;86.14;100534.23;112842;242;39890;-52
2024/02/01 06:35:28;;;;;;;;;26.00;19.25;;;;;3.76;86.12;100527.14;112579;241;160533;-55
2024/02/01 06:38:15;;;;;;;;;32.75;21.00;;;;;3.76;86.13;100527.77;112628;243;40271;-56
2024/02/01 06:41:17;;;;;;;;;28.00;22.00;;;;;3.75;86.19;100523.45;112830;243;40708;-53
2024/02/01 06:44:09;;;;;;;;;24.50;19.75;;;;;3.70;86.18;100517.16;112868;243;40404;-53
2024/02/01 06:47:06;;;;;;;;;30.67;22.00;;;;;3.67;86.31;100524.92;112869;243;39408;-53
2024/02/01 06:52:43;;;;;;;;;27.00;19.00;;;;;3.65;86.39;100515.55;112834;243;39012;-55
2024/02/01 06:58:16;;;;;;;;;26.33;19.00;;;;;3.65;86.40;100513.51;112868;243;40387;-56
2024/02/01 07:01:01;;;;;;;;;25.50;19.50;;;;;3.68;86.47;100518.83;112441;241;161090;-53
2024/02/01 07:03:51;;;;;;;;;29.50;22.00;;;;;3.68;86.65;100513.05;111953;243;39470;-53
2024/02/01 07:06:38;;;;;;;;;31.00;23.00;;;;;3.71;86.79;100518.00;112461;241;162258;-55
2024/02/01 07:09:36;;;;;;;;;30.75;23.00;;;;;3.78;86.62;100514.84;112811;243;39248;-55
2024/02/01 07:12:39;;;;;;;;;26.00;19.00;;;;;3.87;86.60;100513.08;112856;243;39749;-57
2024/02/01 07:15:30;;;;;;;;;27.00;19.00;;;;;3.92;86.66;100509.08;112836;243;39740;-53
2024/02/01 07:18:06;;;;;;;;;32.00;22.00;;;;;3.94;86.57;100499.54;112548;241;160537;-52
2024/02/01 07:20:50;;;;;;;;;30.00;21.00;;;;;3.97;86.49;100502.34;112728;243;40244;-52
2024/02/01 07:23:48;;;;;;;;;25.00;19.25;;;;;3.94;86.61;100497.42;112846;243;40475;-51
2024/02/01 07:26:41;;;;;;;;;28.00;20.00;;;;;3.95;86.44;100498.05;112861;243;39397;-53
2024/02/01 07:58:21;;;;;;;;;33.00;23.00;;;;;4.00;87.35;100491.01;112824;243;39911;-51
2024/02/01 08:01:13;;;;;;;;;27.50;19.50;;;;;4.01;87.46;100492.48;112457;241;161395;-56
2024/02/01 08:04:11;;;;;;;;;22.00;17.50;;;;;4.04;87.78;100494.69;112837;243;39433;-56
2024/02/01 08:09:49;;;;;;;;;22.00;16.00;;;;;4.00;88.34;100502.73;112878;243;40713;-54
2024/02/01 08:12:31;;;;;;;;;22.00;17.00;;;;;4.06;88.51;100502.71;112615;241;161066;-51
2024/02/01 08:15:18;;;;;;;;;30.25;19.75;;;;;4.07;88.64;100501.70;112713;243;39304;-51
2024/02/01 08:17:59;;;;;;;;;19.00;14.00;;;;;4.13;88.78;100499.48;112638;241;161309;-56
2024/02/01 08:20:40;;;;;;;;;26.25;20.00;;;;;4.14;88.79;100503.00;112589;243;39835;-54
2024/02/01 08:23:23;;;;;;;;;20.00;17.00;;;;;4.15;88.84;100503.39;112820;243;40674;-54
2024/02/01 08:26:05;;;;;;;;;22.25;16.50;;;;;4.17;88.91;100499.30;112554;242;39700;-51
2024/02/01 08:28:44;;;;;;;;;19.00;14.00;;;;;4.12;88.95;100505.98;112813;243;44449;-52
2024/02/01 08:31:24;;;;;;;;;19.00;14.00;;;;;4.08;89.06;100505.83;112674;241;162017;-52
2024/02/01 08:34:01;;;;;;;;;26.00;18.00;;;;;4.08;89.31;100507.84;112856;243;39419;-54
2024/02/01 08:36:41;;;;;;;;;21.75;16.00;;;;;4.11;89.38;100510.44;112556;241;162003;-53
2024/02/01 08:39:21;;;;;;;;;17.25;14.00;;;;;4.10;89.69;100509.05;112764;243;39479;-53
2024/02/01 08:42:03;;;;;;;;;15.00;12.00;;;;;4.09;89.78;100511.34;112691;241;161128;-56
2024/02/01 08:44:43;;;;;;;;;22.00;15.50;;;;;4.10;89.99;100505.85;112616;243;39358;-56
2024/02/01 08:47:23;;;;;;;;;19.00;15.00;;;;;4.16;90.00;100502.19;112899;243;39687;-57
2024/02/01 08:50:06;;;;;;;;;18.00;15.00;;;;;4.23;90.24;100504.30;112471;243;40306;-57
2024/02/01 08:52:46;;;;;;;;;18.67;14.00;;;;;4.26;90.29;100502.93;112808;243;40866;-52
2024/02/01 08:55:30;;;;;;;;;14.75;12.00;;;;;4.29;90.27;100503.36;112698;239;162115;-56
2024/02/01 08:58:09;;;;;;;;;18.00;14.00;;;;;4.32;90.44;100511.05;112837;242;40479;-56
2024/02/01 09:00:51;;;;;;;;;15.00;11.00;;;;;4.32;90.41;100509.66;112494;242;160879;-54
2024/02/01 09:03:30;;;;;;;;;17.33;14.00;;;;;4.31;90.68;100504.21;112467;243;39915;-54
2024/02/01 09:06:10;;;;;;;;;22.00;17.00;;;;;4.29;90.67;100503.36;112323;241;160189;-56
2024/02/01 09:08:49;;;;;;;;;23.25;16.50;;;;;4.29;90.67;100504.56;112626;243;39832;-56
2024/02/01 09:11:29;;;;;;;;;11.00;8.25;;;;;4.25;90.58;100511.06;112849;243;39283;-53
2024/02/01 09:14:11;;;;;;;;;23.25;16.25;;;;;4.21;90.67;100509.63;113183;243;40765;-53
2024/02/01 09:16:52;;;;;;;;;22.00;15.00;;;;;4.20;90.71;100517.59;112871;243;40870;-52
2024/02/01 09:19:33;;;;;;;;;18.00;14.00;;;;;4.18;90.82;100525.40;112394;241;160497;-52
2024/02/01 09:22:08;;;;;;;;;19.75;12.00;;;;;4.20;91.01;100523.27;112870;243;39571;-52
2024/02/01 09:24:46;;;;;;;;;18.00;13.00;;;;;4.21;91.13;100519.86;112538;241;161068;-54
2024/02/01 09:27:23;;;;;;;;;15.00;11.00;;;;;4.24;91.25;100521.09;112755;243;39456;-53
2024/02/01 09:30:00;;;;;;;;;14.00;10.25;;;;;4.26;91.23;100520.23;112649;240;160801;-53
2024/02/01 09:32:41;;;;;;;;;18.75;13.25;;;;;4.26;91.38;100513.69;112554;243;39413;-54
2024/02/01 09:35:21;;;;;;;;;15.50;12.00;;;;;4.30;91.34;100516.95;112849;243;39368;-54
2024/02/01 09:37:59;;;;;;;;;16.00;12.00;;;;;4.35;91.40;100514.04;112432;241;161589;-54
2024/02/01 09:40:41;;;;;;;;;18.00;14.00;;;;;4.39;91.24;100520.02;112827;243;41108;-54
2024/02/01 09:43:20;;;;;;;;;22.00;16.25;;;;;4.41;91.31;100520.77;112456;241;160767;-54
2024/02/01 09:46:08;;;;;;;;;23.00;16.00;;;;;4.39;91.32;100520.77;112513;244;40482;-56
2024/02/01 09:48:44;;;;;;;;;18.00;13.25;;;;;4.37;91.39;100519.30;112262;243;160264;-56
2024/02/01 09:51:22;;;;;;;;;15.00;12.00;;;;;4.34;91.34;100522.09;112468;244;40699;-54
2024/02/01 09:54:02;;;;;;;;;16.67;12.00;;;;;4.31;91.46;100519.20;112363;241;160982;-53
2024/02/01 09:56:38;;;;;;;;;16.50;13.00;;;;;4.31;91.69;100514.16;112473;243;39706;-53
2024/02/01 09:59:22;;;;;;;;;19.67;15.00;;;;;4.29;91.87;100518.36;112424;244;41028;-53
2024/02/01 10:02:00;;;;;;;;;17.00;13.00;;;;;4.34;91.88;100520.58;112300;241;160752;-53
2024/02/01 10:04:41;;;;;;;;;22.00;17.00;;;;;4.31;91.87;100515.83;112454;243;39530;-52
2024/02/01 10:07:20;;;;;;;;;20.00;14.00;;;;;4.34;91.91;100515.13;112272;241;161370;-57
2024/02/01 10:10:05;;;;;;;;;15.50;12.25;;;;;4.33;92.13;100510.98;112458;243;40238;-57
2024/02/01 10:12:41;;;;;;;;;16.25;13.00;;;;;4.41;92.25;100507.70;112330;241;161246;-55
2024/02/01 10:15:30;;;;;;;;;21.67;15.33;;;;;4.50;92.23;100497.86;112456;244;39979;-55
2024/02/01 10:18:14;;;;;;;;;16.00;12.00;;;;;4.60;92.22;100500.47;112305;241;161378;-55
2024/02/01 10:20:59;;;;;;;;;20.00;14.50;;;;;4.63;92.44;100496.61;112489;244;39916;-56
2024/02/01 10:23:43;;;;;;;;;15.00;12.67;;;;;4.59;92.51;100500.81;112470;243;40540;-56
2024/02/01 10:26:30;;;;;;;;;13.50;11.00;;;;;4.58;92.59;100501.26;112559;244;40892;-53
2024/02/01 10:29:04;;;;;;;;;17.25;13.00;;;;;4.63;92.58;100502.30;112511;244;40139;-52
2024/02/01 10:31:51;;;;;;;;;11.00;9.25;;;;;4.64;92.44;100499.14;112355;242;160499;-56
2024/02/01 10:34:30;;;;;;;;;15.00;12.00;;;;;4.64;92.62;100497.90;112453;244;40484;-56
2024/02/01 10:37:10;;;;;;;;;18.33;14.33;;;;;4.60;92.74;100496.33;112390;240;161404;-52
2024/02/01 10:39:55;;;;;;;;;16.00;13.00;;;;;4.58;92.68;100498.14;112559;244;39418;-52
2024/02/01 10:42:34;;;;;;;;;14.50;11.00;;;;;4.61;92.63;100496.29;112328;243;161296;-55
2024/02/01 10:45:12;;;;;;;;;14.75;11.25;;;;;4.62;92.79;100496.31;112683;243;39891;-53
2024/02/01 10:47:56;;;;;;;;;16.00;12.00;;;;;4.67;92.74;100491.56;112717;239;161665;-53
2024/02/01 10:50:33;;;;;;;;;14.00;10.25;;;;;4.66;92.81;100490.20;112795;243;40107;-55
2024/02/01 10:53:15;;;;;;;;;15.00;11.75;;;;;4.64;92.98;100487.58;112836;243;40090;-55
2024/02/01 10:55:59;;;;;;;;;15.00;11.00;;;;;4.66;92.91;100480.40;112381;241;161275;-55
2024/02/01 10:58:39;;;;;;;;;13.50;10.00;;;;;4.68;92.89;100475.75;112866;243;39184;-55
2024/02/01 11:01:19;;;;;;;;;12.00;10.00;;;;;4.71;92.92;100481.53;112441;241;160900;-56
2024/02/01 11:04:05;;;;;;;;;11.00;9.00;;;;;4.71;92.91;100482.47;112839;243;39324;-57
2024/02/01 11:06:51;;;;;;;;;15.00;11.00;;;;;4.68;93.07;100478.28;112548;241;160232;-55
2024/02/01 11:09:30;;;;;;;;;15.75;11.00;;;;;4.66;93.08;100475.80;112741;243;39917;-55
2024/02/01 11:12:13;;;;;;;;;15.50;12.00;;;;;4.66;93.14;100479.23;112690;240;161179;-56
2024/02/01 11:15:05;;;;;;;;;19.00;13.00;;;;;4.63;93.28;100475.77;112659;243;39171;-56
2024/02/01 11:17:43;;;;;;;;;10.50;8.00;;;;;4.68;93.22;100479.21;112374;242;161430;-52
2024/02/01 11:20:31;;;;;;;;;13.00;10.00;;;;;4.67;93.33;100475.33;112526;243;39918;-52
2024/02/01 11:23:19;;;;;;;;;12.00;9.00;;;;;4.67;93.67;100473.05;112794;243;40475;-51
2024/02/01 11:26:07;;;;;;;;;14.00;11.00;;;;;4.66;93.38;100471.88;112398;241;161502;-52
2024/02/01 11:28:48;;;;;;;;;14.00;10.00;;;;;4.72;93.77;100470.05;112824;243;39873;-52
2024/02/01 11:31:25;;;;;;;;;9.67;7.67;;;;;4.83;93.73;100460.78;112409;241;161368;-56
2024/02/01 11:34:10;;;;;;;;;12.00;10.00;;;;;4.94;93.85;100464.84;112802;243;40001;-56
2024/02/01 11:36:51;;;;;;;;;13.00;10.00;;;;;5.04;94.03;100464.55;112629;241;160250;-53
2024/02/01 11:39:31;;;;;;;;;18.67;13.33;;;;;5.22;94.04;100468.59;112741;243;41167;-52
2024/02/01 11:42:09;;;;;;;;;11.00;10.00;;;;;5.28;94.02;100467.46;112681;241;161097;-55
2024/02/01 11:44:49;;;;;;;;;15.00;11.50;;;;;5.31;93.85;100463.41;112480;244;39550;-55
2024/02/01 11:47:26;;;;;;;;;19.25;15.00;;;;;5.41;93.82;100465.23;112503;244;39943;-53
2024/02/01 11:50:03;;;;;;;;;11.00;10.00;;;;;5.40;93.63;100462.48;112383;241;160383;-53
2024/02/01 11:52:50;;;;;;;;;10.50;8.00;;;;;5.34;93.56;100458.04;112807;243;40926;-52
2024/02/01 11:55:37;;;;;;;;;18.00;14.00;;;;;5.28;93.34;100459.56;112425;242;161993;-52
2024/02/01 11:58:18;;;;;;;;;13.75;9.25;;;;;5.29;93.22;100459.64;112823;243;40470;-52
2024/02/01 12:01:03;;;;;;;;;19.00;13.25;;;;;5.34;93.04;100456.98;112552;241;161213;-54
2024/02/01 12:03:57;;;;;;;;;11.00;9.00;;;;;5.45;93.04;100457.91;112714;243;39384;-54
2024/02/01 12:06:43;;;;;;;;;13.00;10.00;;;;;5.62;92.89;100453.24;112584;242;161241;-56
2024/02/01 12:09:22;;;;;;;;;22.00;14.25;;;;;5.68;92.56;100452.96;112687;243;39386;-56
2024/02/01 12:12:01;;;;;;;;;11.25;8.25;;;;;5.65;92.27;100455.67;112749;241;160922;-52
2024/02/01 12:14:38;;;;;;;;;10.25;7.50;;;;;5.60;92.32;100458.48;112522;243;39239;-53
2024/02/01 12:17:17;;;;;;;;;13.50;10.25;;;;;5.62;92.35;100461.30;112901;243;41429;-55
2024/02/01 12:19:58;;;;;;;;;10.00;7.00;;;;;5.76;92.35;100455.24;112429;241;160342;-55
2024/02/01 12:22:40;;;;;;;;;13.00;10.00;;;;;5.79;91.69;100455.84;112903;243;39907;-51
2024/02/01 12:25:19;;;;;;;;;9.00;8.00;;;;;5.69;91.57;100461.52;112650;241;161190;-54
2024/02/01 12:28:01;;;;;;;;;12.00;9.00;;;;;5.66;91.67;100460.91;112789;243;41079;-55
2024/02/01 12:30:44;;;;;;;;;11.00;9.00;;;;;5.71;91.43;100457.71;112572;242;160715;-52
2024/02/01 12:33:28;;;;;;;;;10.00;8.00;;;;;5.76;91.13;100459.32;112649;243;39450;-51
2024/02/01 12:36:07;;;;;;;;;11.00;10.00;;;;;5.83;90.83;100464.29;112636;241;160584;-56
2024/02/01 12:38:47;;;;;;;;;11.00;9.00;;;;;5.88;90.33;100457.21;112554;243;40776;-56
2024/02/01 12:41:27;;;;;;;;;16.67;11.33;;;;;5.79;89.81;100461.50;112847;243;41010;-55
2024/02/01 12:44:07;;;;;;;;;14.00;11.00;;;;;5.72;89.78;100458.64;112357;241;160205;-55
2024/02/01 12:46:42;;;;;;;;;12.00;10.00;;;;;5.72;89.52;100456.53;112842;243;41032;-54
2024/02/01 12:49:25;;;;;;;;;13.50;10.50;;;;;5.74;89.50;100467.01;112472;241;160481;-55
2024/02/01 12:52:04;;;;;;;;;9.00;8.00;;;;;5.80;89.28;100463.35;112810;243;39840;-55
2024/02/01 12:54:45;;;;;;;;;12.00;9.00;;;;;5.85;89.16;100463.71;112562;241;161250;-55
2024/02/01 12:57:22;;;;;;;;;10.00;8.00;;;;;5.88;89.05;100472.72;112685;243;39599;-55
2024/02/01 12:59:59;;;;;;;;;12.00;9.00;;;;;5.92;88.82;100464.81;112716;243;161882;-55